This is the latest recevied weather packets stored in our database for station/object EA3GKP-10. If no packets are shown the sender has not sent any weather packets the latest 10 day(s).
| Time | Temp. | Humidity | Pressure | Rain* | Wind** | Luminosity | Snow |
|---|---|---|---|---|---|---|---|
| 1777569278 | 21.67° C | - | - | 0 mm | 2.24 m/s, 240° | - | - |
| 1777568975 | 21.67° C | - | - | 0 mm | 1.34 m/s, 195° | - | - |
| 1777568672 | 22.22° C | - | - | 0 mm | 1.79 m/s, 183° | - | - |
| 1777568367 | 22.22° C | - | - | 0 mm | 1.79 m/s, 224° | - | - |
| 1777568064 | 22.78° C | - | - | 0 mm | 1.34 m/s, 187° | - | - |
| 1777567761 | 22.22° C | - | - | 0 mm | 1.79 m/s, 225° | - | - |
| 1777567458 | 21.67° C | - | - | 0 mm | 2.24 m/s, 194° | - | - |
| 1777567156 | 21.67° C | - | - | 0 mm | 2.24 m/s, 148° | - | - |
| 1777566850 | 22.78° C | - | - | 0 mm | 1.79 m/s, 129° | - | - |
| 1777566547 | 22.78° C | - | - | 0 mm | 1.34 m/s, 143° | - | - |
| 1777566242 | 22.22° C | - | - | 0 mm | 1.79 m/s, 152° | - | - |
| 1777565939 | 22.22° C | - | - | 0 mm | 1.34 m/s, 274° | - | - |
| 1777565332 | 21.67° C | - | - | 0 mm | 2.24 m/s, 135° | - | - |
| 1777565029 | 22.22° C | - | - | 0 mm | 2.24 m/s, 260° | - | - |
| 1777564721 | 21.67° C | - | - | 0 mm | 2.24 m/s, 191° | - | - |
| 1777564419 | 21.67° C | - | - | 0 mm | 1.34 m/s, 152° | - | - |
| 1777564116 | 22.78° C | - | - | 0 mm | 0.89 m/s, 98° | - | - |
| 1777563510 | 22.22° C | - | - | 0 mm | 2.68 m/s, 152° | - | - |
| 1777563207 | 22.78° C | - | - | 0 mm | 2.68 m/s, 127° | - | - |
| 1777562904 | 22.78° C | - | - | 0 mm | 1.79 m/s, 200° | - | - |
| 1777562601 | 23.33° C | - | - | 0 mm | 1.34 m/s, 201° | - | - |
| 1777562295 | 22.78° C | - | - | 0 mm | 2.24 m/s, 200° | - | - |
| 1777561993 | 23.33° C | - | - | 0 mm | 0.89 m/s, 224° | - | - |
| 1777561690 | 22.78° C | - | - | 0 mm | 0.89 m/s, 201° | - | - |
| 1777561084 | 22.22° C | - | - | 0 mm | 1.79 m/s, 121° | - | - |
* Rain latest hour (hover to see other rain measurements)
** Current wind speed in m/s (hover to see current wind gust speed)